Time;durP1;ratioP1;P1;durP2;ratioP2;P2;SDS_P1;SDS_P2;PMS_P1;PMS_P2;Temp;Humidity;BMP_temperature;BMP_pressure;BME280_temperature;BME280_humidity;BME280_pressure;Samples;Min_cycle;Max_cycle;Signal;HPM_P1;HPM_P2
2021/12/29 00:01:41;;;;;;;3.30;3.00;;;10.20;1.00;;;;;;6124956;23;20433;-80
2021/12/29 00:04:07;;;;;;;3.60;3.15;;;10.30;1.00;;;;;;6125709;23;20013;-80
2021/12/29 00:06:33;;;;;;;3.47;3.03;;;10.30;1.00;;;;;;6124911;23;20006;-80
2021/12/29 00:08:59;;;;;;;4.68;3.20;;;10.40;1.00;;;;;;6125314;23;20088;-80
2021/12/29 00:11:26;;;;;;;4.43;3.10;;;10.40;1.00;;;;;;6125595;23;20429;-80
2021/12/29 00:13:52;;;;;;;3.42;3.13;;;10.50;1.00;;;;;;6125006;23;20002;-80
2021/12/29 00:16:18;;;;;;;3.83;3.20;;;10.50;1.00;;;;;;6125275;23;20009;-80
2021/12/29 00:18:44;;;;;;;4.00;3.60;;;10.40;1.00;;;;;;6099450;23;20013;-80
2021/12/29 00:21:10;;;;;;;3.70;3.40;;;10.50;1.00;;;;;;6125396;23;20018;-80
2021/12/29 00:23:36;;;;;;;5.40;3.70;;;10.50;1.00;;;;;;6125132;23;20010;-80
2021/12/29 00:26:03;;;;;;;4.97;4.15;;;10.60;1.00;;;;;;6125882;23;20333;-80
2021/12/29 00:28:29;;;;;;;5.00;4.13;;;10.40;1.00;;;;;;6125174;23;20006;-80
2021/12/29 00:30:54;;;;;;;4.95;3.50;;;10.50;1.00;;;;;;6124851;23;20421;-80
2021/12/29 00:33:21;;;;;;;5.07;4.20;;;10.40;1.00;;;;;;6124920;23;20712;-80
2021/12/29 00:35:48;;;;;;;5.97;4.63;;;10.40;1.00;;;;;;6125259;23;20010;-80
2021/12/29 00:38:13;;;;;;;8.50;5.53;;;10.50;1.00;;;;;;6125459;23;20340;-80
2021/12/29 00:40:39;;;;;;;6.22;5.18;;;10.50;1.00;;;;;;6124630;23;20041;-80
2021/12/29 00:43:07;;;;;;;8.90;6.50;;;10.50;1.00;;;;;;6125422;23;19998;-80
2021/12/29 00:45:36;;;;;;;7.20;6.35;;;10.40;1.00;;;;;;6124876;23;20120;-80
2021/12/29 00:48:05;;;;;;;6.82;6.13;;;10.50;1.00;;;;;;6124785;23;20037;-80
2021/12/29 00:50:33;;;;;;;6.57;5.65;;;10.50;1.00;;;;;;6098552;23;20024;-80
2021/12/29 00:52:59;;;;;;;7.07;5.68;;;10.50;1.00;;;;;;6124932;23;20010;-80
2021/12/29 00:55:25;;;;;;;6.82;5.80;;;10.50;1.00;;;;;;6098050;23;20444;-80
2021/12/29 00:57:51;;;;;;;6.88;5.75;;;10.40;1.00;;;;;;6125014;23;20021;-80
2021/12/29 01:00:19;;;;;;;6.38;5.53;;;10.50;1.00;;;;;;6124347;23;20373;-80
2021/12/29 01:02:46;;;;;;;6.20;5.00;;;10.40;1.00;;;;;;6124499;23;20429;-80
2021/12/29 01:05:14;;;;;;;5.20;4.70;;;10.40;1.00;;;;;;6124463;23;20066;-80
2021/12/29 01:07:41;;;;;;;6.15;4.50;;;10.40;1.00;;;;;;6125918;23;20077;-80
2021/12/29 01:10:07;;;;;;;6.60;4.50;;;10.40;1.00;;;;;;6124885;23;20010;-80
2021/12/29 01:12:33;;;;;;;5.63;4.88;;;10.40;1.00;;;;;;6124454;23;20009;-80
2021/12/29 01:15:01;;;;;;;5.50;4.88;;;10.70;1.00;;;;;;6124308;23;19998;-80
2021/12/29 01:17:27;;;;;;;5.63;4.65;;;10.40;1.00;;;;;;6125349;23;20009;-80
2021/12/29 01:19:54;;;;;;;6.10;5.03;;;10.30;1.00;;;;;;6124587;23;20010;-80
2021/12/29 01:22:21;;;;;;;5.78;4.63;;;10.10;1.00;;;;;;6124934;23;20029;-80
2021/12/29 01:24:47;;;;;;;5.43;4.68;;;10.20;1.00;;;;;;6123976;23;20423;-80
2021/12/29 01:27:14;;;;;;;5.43;4.93;;;10.30;1.00;;;;;;6124252;23;20006;-80
2021/12/29 01:29:41;;;;;;;5.10;4.47;;;10.20;1.00;;;;;;6125422;23;20029;-80
2021/12/29 01:32:07;;;;;;;6.28;5.10;;;10.30;1.00;;;;;;6123803;23;20012;-80
2021/12/29 01:34:32;;;;;;;6.45;4.55;;;10.30;1.00;;;;;;6124889;23;20010;-80
2021/12/29 01:36:58;;;;;;;6.13;5.10;;;10.40;1.00;;;;;;6124499;23;20002;-80
2021/12/29 01:39:24;;;;;;;5.38;4.53;;;10.50;1.00;;;;;;6124733;23;20478;-80
2021/12/29 01:41:54;;;;;;;5.68;4.40;;;10.40;1.00;;;;;;6124100;23;20025;-80
2021/12/29 01:44:24;;;;;;;3.95;3.55;;;10.40;1.00;;;;;;6124833;23;20002;-80
2021/12/29 01:46:50;;;;;;;4.90;3.83;;;10.30;1.00;;;;;;6124336;23;20030;-80
2021/12/29 01:49:16;;;;;;;6.18;3.92;;;10.30;1.00;;;;;;6124625;23;20012;-80
2021/12/29 01:51:49;;;;;;;4.88;3.70;;;10.30;1.00;;;;;;6124094;23;20029;-80
2021/12/29 01:54:25;;;;;;;5.03;3.80;;;10.30;1.00;;;;;;6124771;23;20010;-80
2021/12/29 01:56:54;;;;;;;4.70;4.10;;;10.20;1.00;;;;;;6123904;23;20013;-80
2021/12/29 01:59:21;;;;;;;4.32;3.90;;;10.30;1.00;;;;;;6124511;23;20006;-80
2021/12/29 02:01:47;;;;;;;5.07;3.80;;;10.30;1.00;;;;;;6124859;23;20448;-81
2021/12/29 02:04:13;;;;;;;6.28;3.88;;;10.60;1.00;;;;;;6124458;23;20008;-80
2021/12/29 02:06:38;;;;;;;4.40;3.95;;;10.70;1.00;;;;;;6124352;23;20012;-80
2021/12/29 02:09:05;;;;;;;5.35;4.20;;;10.30;1.00;;;;;;6124374;23;20369;-80
2021/12/29 02:11:33;;;;;;;4.97;4.00;;;10.20;1.00;;;;;;6125175;23;20006;-81
2021/12/29 02:14:03;;;;;;;4.45;4.05;;;10.20;1.00;;;;;;6098220;23;20456;-80
2021/12/29 02:16:29;;;;;;;5.45;4.07;;;10.30;1.00;;;;;;6124140;23;20002;-80
2021/12/29 02:18:57;;;;;;;4.63;3.88;;;10.20;1.00;;;;;;6124191;23;20128;-80
2021/12/29 02:21:25;;;;;;;4.82;3.67;;;10.60;1.00;;;;;;6124516;23;20016;-80
2021/12/29 02:26:29;;;;;;;4.25;3.58;;;10.60;1.00;;;;;;6124484;23;20006;-80
2021/12/29 02:28:56;;;;;;;3.38;3.08;;;10.40;1.00;;;;;;6124521;23;19997;-80
2021/12/29 02:31:25;;;;;;;5.05;3.63;;;10.30;1.00;;;;;;6124086;23;20002;-80
2021/12/29 02:33:52;;;;;;;3.83;3.40;;;10.30;1.00;;;;;;6123934;23;20002;-81
2021/12/29 02:36:18;;;;;;;4.15;3.47;;;10.40;1.00;;;;;;6124550;23;20012;-80
2021/12/29 02:38:49;;;;;;;4.20;3.75;;;10.40;1.00;;;;;;6124546;23;20478;-80
2021/12/29 02:41:15;;;;;;;2.97;2.67;;;10.70;1.00;;;;;;6123886;23;20013;-80
2021/12/29 02:43:41;;;;;;;4.10;3.33;;;10.30;1.00;;;;;;6124279;23;20006;-80
2021/12/29 02:46:12;;;;;;;3.50;2.95;;;10.30;1.00;;;;;;6124023;23;20401;-80
2021/12/29 02:48:56;;;;;;;2.85;2.58;;;10.30;1.00;;;;;;6124178;23;20092;-80
2021/12/29 02:51:22;;;;;;;3.58;2.80;;;10.40;1.00;;;;;;6123546;23;20014;-80
2021/12/29 02:53:48;;;;;;;3.05;2.55;;;10.40;1.00;;;;;;6124013;23;20013;-81
2021/12/29 02:56:14;;;;;;;2.83;2.40;;;10.40;1.00;;;;;;6124164;23;20002;-80
2021/12/29 02:58:40;;;;;;;2.95;2.58;;;10.60;1.00;;;;;;6124253;23;20006;-80
2021/12/29 03:01:08;;;;;;;3.10;2.65;;;10.40;1.00;;;;;;6124122;23;20021;-80
2021/12/29 03:03:37;;;;;;;2.92;2.30;;;10.50;1.00;;;;;;6123959;23;20006;-81
2021/12/29 03:06:03;;;;;;;4.07;2.42;;;10.50;1.00;;;;;;6125156;23;20010;-80
2021/12/29 03:08:30;;;;;;;3.55;2.60;;;10.50;1.00;;;;;;6123767;23;20033;-80
2021/12/29 03:10:56;;;;;;;4.40;2.65;;;10.60;1.00;;;;;;6123567;23;20006;-80
2021/12/29 03:13:23;;;;;;;4.00;3.00;;;10.40;1.00;;;;;;6124011;23;20329;-80
2021/12/29 03:15:50;;;;;;;3.22;2.63;;;10.30;1.00;;;;;;6123915;23;20137;-81
2021/12/29 03:18:16;;;;;;;3.90;2.97;;;10.40;1.00;;;;;;6124879;23;19998;-80
2021/12/29 03:20:42;;;;;;;3.25;2.67;;;10.50;1.00;;;;;;6125844;23;20089;-80
2021/12/29 03:23:08;;;;;;;2.95;2.47;;;10.70;1.00;;;;;;6125428;23;20382;-80
2021/12/29 03:25:33;;;;;;;2.30;2.10;;;10.50;1.00;;;;;;6125344;23;20009;-80
2021/12/29 03:28:00;;;;;;;2.53;2.33;;;10.70;1.00;;;;;;6126337;23;20013;-80
2021/12/29 03:30:37;;;;;;;3.97;2.30;;;10.60;1.00;;;;;;6126007;23;20002;-80
2021/12/29 03:33:05;;;;;;;3.53;2.33;;;10.60;1.00;;;;;;6125503;23;20463;-80
2021/12/29 03:35:37;;;;;;;2.28;1.85;;;10.60;1.00;;;;;;6125624;23;20453;-81
2021/12/29 03:38:06;;;;;;;2.45;2.00;;;10.60;1.00;;;;;;6124920;23;20006;-81
2021/12/29 03:40:35;;;;;;;3.50;1.98;;;10.60;1.00;;;;;;6125435;23;20013;-81
2021/12/29 03:43:02;;;;;;;3.30;1.88;;;10.80;1.00;;;;;;6125761;23;20017;-81
2021/12/29 03:45:28;;;;;;;2.20;1.90;;;10.60;1.00;;;;;;6125386;23;20002;-80
2021/12/29 03:47:53;;;;;;;1.80;1.67;;;10.60;1.00;;;;;;6125962;23;20025;-80
2021/12/29 03:50:19;;;;;;;2.13;1.92;;;10.70;1.00;;;;;;6125590;23;20033;-81
2021/12/29 03:52:45;;;;;;;4.70;2.15;;;10.70;1.00;;;;;;6124883;23;20100;-80
2021/12/29 03:55:11;;;;;;;2.88;2.08;;;10.70;1.00;;;;;;6125536;23;20010;-80
2021/12/29 03:57:37;;;;;;;2.17;1.85;;;10.70;1.00;;;;;;6125879;23;20012;-80
2021/12/29 04:00:10;;;;;;;1.92;1.83;;;10.70;1.00;;;;;;6125151;23;20005;-80
2021/12/29 04:02:35;;;;;;;3.30;2.45;;;10.70;1.00;;;;;;6125396;23;20009;-80
2021/12/29 04:05:02;;;;;;;4.00;2.22;;;10.70;1.00;;;;;;6126095;23;20013;-80
2021/12/29 04:07:28;;;;;;;2.30;2.10;;;10.60;1.00;;;;;;6124581;23;20081;-80
2021/12/29 04:09:53;;;;;;;2.15;1.90;;;10.70;1.00;;;;;;6125397;23;19998;-80
2021/12/29 04:12:19;;;;;;;3.00;2.63;;;10.70;1.00;;;;;;6125206;23;20010;-81
2021/12/29 04:14:45;;;;;;;3.05;2.75;;;10.60;1.00;;;;;;6124879;23;20069;-80
2021/12/29 04:17:12;;;;;;;3.47;2.78;;;10.50;1.00;;;;;;6125476;23;20341;-80
2021/12/29 04:22:23;;;;;;;6.32;3.10;;;10.60;1.00;;;;;;6125271;23;20093;-80
2021/12/29 04:24:49;;;;;;;3.80;3.33;;;10.60;1.00;;;;;;6124711;23;20026;-80
2021/12/29 04:27:15;;;;;;;3.58;3.28;;;10.60;1.00;;;;;;6125907;23;20029;-80
2021/12/29 04:29:41;;;;;;;5.25;4.53;;;10.60;1.00;;;;;;6124215;23;20090;-80
2021/12/29 04:32:07;;;;;;;6.97;5.43;;;10.40;1.00;;;;;;6125346;23;20042;-80
2021/12/29 04:34:33;;;;;;;7.05;5.90;;;10.40;1.00;;;;;;6125300;23;20010;-80
2021/12/29 04:36:59;;;;;;;6.05;5.45;;;10.50;1.00;;;;;;6124776;23;20085;-79
2021/12/29 04:39:24;;;;;;;5.97;5.38;;;10.50;1.00;;;;;;6124954;23;20051;-80
2021/12/29 04:41:50;;;;;;;7.05;6.10;;;10.50;1.00;;;;;;6124804;23;20009;-80
2021/12/29 04:44:15;;;;;;;9.15;6.18;;;10.40;1.00;;;;;;6124885;23;20436;-80
2021/12/29 04:46:45;;;;;;;6.85;6.15;;;10.40;1.00;;;;;;6125445;23;20010;-80
2021/12/29 04:49:13;;;;;;;6.97;6.05;;;10.40;1.00;;;;;;6124875;23;19998;-80
2021/12/29 04:51:51;;;;;;;8.02;5.97;;;10.40;1.00;;;;;;6124623;23;20077;-80
2021/12/29 04:54:17;;;;;;;6.07;5.22;;;10.50;1.00;;;;;;6125079;23;20031;-80
2021/12/29 04:56:43;;;;;;;7.53;5.00;;;10.50;1.00;;;;;;6124618;23;20002;-80
2021/12/29 04:59:09;;;;;;;6.15;4.90;;;10.60;1.00;;;;;;6124817;23;20441;-80
2021/12/29 05:01:35;;;;;;;5.32;4.25;;;10.60;1.00;;;;;;6124517;23;20014;-80
2021/12/29 05:04:00;;;;;;;5.55;4.35;;;10.70;1.00;;;;;;6124498;23;20050;-80
2021/12/29 05:09:18;;;;;;;4.90;3.65;;;10.80;1.00;;;;;;6007064;23;19999;-80
2021/12/29 05:11:43;;;;;;;5.65;4.13;;;10.80;1.00;;;;;;6006679;23;20550;-80
2021/12/29 05:14:09;;;;;;;7.32;4.85;;;10.70;1.00;;;;;;6007357;23;20015;-80
2021/12/29 05:16:36;;;;;;;6.72;4.95;;;10.70;1.00;;;;;;6007264;23;20007;-80
2021/12/29 05:19:01;;;;;;;7.15;4.72;;;10.90;1.00;;;;;;6006695;23;20118;-80
2021/12/29 05:21:27;;;;;;;8.07;5.13;;;10.80;1.00;;;;;;6006393;23;20035;-80
2021/12/29 05:23:54;;;;;;;8.10;4.80;;;10.70;1.00;;;;;;6006932;23;20381;-80
2021/12/29 05:26:19;;;;;;;6.97;4.43;;;10.70;1.00;;;;;;6007661;23;20064;-80
2021/12/29 05:28:45;;;;;;;6.07;4.22;;;10.60;1.00;;;;;;6006729;23;20008;-80
2021/12/29 05:31:11;;;;;;;5.80;4.63;;;10.70;1.00;;;;;;6006462;23;20013;-80
2021/12/29 05:33:37;;;;;;;4.32;3.92;;;10.80;1.00;;;;;;6007148;23;20014;-80
2021/12/29 05:36:03;;;;;;;4.07;3.67;;;10.90;1.00;;;;;;6006354;23;20506;-80
2021/12/29 05:38:29;;;;;;;3.90;3.50;;;10.80;1.00;;;;;;6006578;23;20462;-80
2021/12/29 05:40:55;;;;;;;5.28;4.22;;;10.90;1.00;;;;;;6006885;23;20028;-80
2021/12/29 05:43:20;;;;;;;5.65;4.18;;;10.90;1.00;;;;;;6006563;23;20007;-80
2021/12/29 05:45:49;;;;;;;5.30;3.80;;;10.90;1.00;;;;;;6051554;23;20068;-80
2021/12/29 05:48:15;;;;;;;5.00;4.10;;;10.80;1.00;;;;;;6123979;23;20029;-80
2021/12/29 05:50:41;;;;;;;5.60;3.97;;;10.90;1.00;;;;;;6124173;23;20017;-80
2021/12/29 05:53:07;;;;;;;6.72;4.68;;;10.80;1.00;;;;;;6125038;23;19998;-80
2021/12/29 05:55:32;;;;;;;6.22;4.15;;;10.60;1.00;;;;;;6124468;23;20021;-80
2021/12/29 05:57:58;;;;;;;4.80;4.30;;;10.70;1.00;;;;;;6124497;23;20336;-80
2021/12/29 06:00:26;;;;;;;4.82;4.32;;;10.70;1.00;;;;;;6124553;23;20014;-80
2021/12/29 06:02:52;;;;;;;6.68;5.07;;;10.80;1.00;;;;;;6123865;23;19998;-80
2021/12/29 06:05:19;;;;;;;5.35;4.20;;;10.80;1.00;;;;;;6124536;23;20005;-80
2021/12/29 06:07:45;;;;;;;7.97;4.93;;;10.70;1.00;;;;;;6124467;23;20002;-80
2021/12/29 06:10:11;;;;;;;6.05;4.50;;;10.70;1.00;;;;;;6124841;23;20014;-80
2021/12/29 06:12:38;;;;;;;8.85;5.10;;;10.70;1.00;;;;;;6124155;23;20002;-80
2021/12/29 06:15:06;;;;;;;7.13;5.50;;;10.80;1.00;;;;;;6124913;23;20006;-80
2021/12/29 06:17:32;;;;;;;10.40;5.20;;;10.80;1.00;;;;;;6123867;23;20131;-80
2021/12/29 06:19:58;;;;;;;5.93;4.70;;;10.80;1.00;;;;;;6124369;23;20010;-80
2021/12/29 06:22:24;;;;;;;6.80;5.15;;;11.20;1.00;;;;;;6124942;23;20471;-80
2021/12/29 06:24:53;;;;;;;7.28;5.13;;;10.90;1.00;;;;;;6124728;23;20329;-80
2021/12/29 06:27:21;;;;;;;7.63;5.57;;;10.90;1.00;;;;;;6124115;23;20006;-80
2021/12/29 06:29:47;;;;;;;12.65;5.68;;;10.90;1.00;;;;;;6124035;23;20060;-80
2021/12/29 06:32:13;;;;;;;7.63;5.10;;;10.80;1.00;;;;;;6123626;23;20002;-80
2021/12/29 06:34:39;;;;;;;9.32;5.20;;;10.90;1.00;;;;;;6124280;23;20006;-80
2021/12/29 06:37:08;;;;;;;9.05;5.13;;;10.80;1.00;;;;;;6124121;23;20062;-80
2021/12/29 06:39:41;;;;;;;6.30;4.80;;;10.90;1.00;;;;;;6124226;23;20013;-80
2021/12/29 06:42:07;;;;;;;5.95;4.68;;;10.90;1.00;;;;;;6124380;23;20010;-80
2021/12/29 06:44:33;;;;;;;5.43;4.50;;;10.90;1.00;;;;;;6124012;23;20072;-80
2021/12/29 06:46:58;;;;;;;4.88;4.05;;;10.90;1.00;;;;;;6124391;23;20010;-80
2021/12/29 06:49:24;;;;;;;6.47;4.55;;;11.00;1.00;;;;;;6123456;23;20006;-80
2021/12/29 06:51:50;;;;;;;7.95;5.28;;;10.90;1.00;;;;;;6123298;23;20045;-80
2021/12/29 06:54:16;;;;;;;4.70;3.97;;;10.90;1.00;;;;;;6125127;23;20009;-81
2021/12/29 06:56:43;;;;;;;9.13;5.43;;;10.90;1.00;;;;;;6125586;23;20370;-80
2021/12/29 06:59:09;;;;;;;11.10;6.97;;;10.90;1.00;;;;;;6126256;23;20006;-81
2021/12/29 07:01:35;;;;;;;9.07;6.35;;;10.90;1.00;;;;;;6125456;23;20020;-80
2021/12/29 07:04:01;;;;;;;10.40;6.45;;;10.90;1.00;;;;;;6125307;23;20001;-80
2021/12/29 07:06:30;;;;;;;8.18;6.07;;;11.00;1.00;;;;;;6125418;23;20002;-79
2021/12/29 07:08:55;;;;;;;10.25;5.78;;;11.00;1.00;;;;;;6125742;23;20002;-82
2021/12/29 07:11:21;;;;;;;6.07;4.72;;;11.10;1.00;;;;;;6125646;23;20009;-80
2021/12/29 07:13:47;;;;;;;7.70;5.45;;;10.90;1.00;;;;;;6125941;23;20002;-81
2021/12/29 07:16:12;;;;;;;11.45;7.63;;;10.90;1.00;;;;;;6125659;23;20006;-81
2021/12/29 07:18:38;;;;;;;12.88;8.00;;;11.00;1.00;;;;;;6125794;23;20318;-81
2021/12/29 07:21:04;;;;;;;6.82;5.05;;;11.10;1.00;;;;;;6125689;23;20013;-82
2021/12/29 07:23:30;;;;;;;10.20;5.25;;;11.10;1.00;;;;;;6126378;23;20433;-82
2021/12/29 07:25:55;;;;;;;9.70;5.95;;;11.00;1.00;;;;;;6125860;23;20319;-86
2021/12/29 07:28:21;;;;;;;8.85;6.38;;;10.90;1.00;;;;;;6125596;23;20073;-81
2021/12/29 07:30:47;;;;;;;12.63;6.57;;;10.80;1.00;;;;;;6125438;23;20041;-81
2021/12/29 07:33:12;;;;;;;8.32;5.63;;;10.80;1.00;;;;;;6125609;23;20080;-81
2021/12/29 07:35:38;;;;;;;9.48;5.55;;;10.90;1.00;;;;;;6125902;23;20025;-81
2021/12/29 07:38:04;;;;;;;6.63;5.10;;;10.80;1.00;;;;;;6125336;23;20006;-81
2021/12/29 07:40:30;;;;;;;7.15;6.22;;;10.80;1.00;;;;;;6125434;23;20068;-81
2021/12/29 07:42:56;;;;;;;10.45;6.35;;;10.90;1.00;;;;;;6125655;23;20541;-81
2021/12/29 07:45:24;;;;;;;6.70;5.07;;;10.90;1.00;;;;;;6125111;23;20001;-80
2021/12/29 07:47:50;;;;;;;5.78;4.43;;;11.00;1.00;;;;;;6125627;23;20006;-81
2021/12/29 07:50:18;;;;;;;5.93;4.80;;;11.10;1.00;;;;;;6125321;23;20026;-81
2021/12/29 07:52:47;;;;;;;6.93;5.35;;;11.10;1.00;;;;;;6125549;23;20005;-81
2021/12/29 07:55:14;;;;;;;10.70;7.03;;;11.10;1.00;;;;;;6125203;23;20002;-81
2021/12/29 07:57:40;;;;;;;9.70;6.10;;;11.10;1.00;;;;;;6125311;23;20013;-81
2021/12/29 08:00:07;;;;;;;7.93;6.25;;;11.10;1.00;;;;;;6125223;23;20002;-81
2021/12/29 08:02:34;;;;;;;8.00;6.40;;;11.10;1.00;;;;;;6125717;23;20042;-81
2021/12/29 08:05:00;;;;;;;5.63;4.35;;;11.10;1.00;;;;;;6125126;23;20073;-81
2021/12/29 08:07:25;;;;;;;7.60;6.10;;;11.20;1.00;;;;;;6124776;23;20033;-81
2021/12/29 08:09:54;;;;;;;9.18;6.90;;;11.20;1.00;;;;;;6126063;23;20342;-81
2021/12/29 08:12:19;;;;;;;10.55;6.68;;;11.00;1.00;;;;;;6126001;23;20006;-81
2021/12/29 08:14:47;;;;;;;8.20;6.53;;;11.10;1.00;;;;;;6124714;23;20314;-81
2021/12/29 08:17:13;;;;;;;8.55;6.78;;;11.10;1.00;;;;;;6125352;23;20060;-81
2021/12/29 08:19:39;;;;;;;11.50;7.03;;;11.20;1.00;;;;;;6125022;23;20076;-81
2021/12/29 08:22:04;;;;;;;8.40;6.50;;;11.20;1.00;;;;;;6125018;23;20014;-81
2021/12/29 08:24:30;;;;;;;9.82;7.35;;;11.30;1.00;;;;;;6125119;23;20004;-81
2021/12/29 08:26:55;;;;;;;16.73;10.60;;;11.20;1.00;;;;;;6124928;23;20012;-81
2021/12/29 08:29:21;;;;;;;17.13;11.43;;;11.30;1.00;;;;;;6124911;23;20005;-81
2021/12/29 08:31:47;;;;;;;14.95;9.85;;;11.30;1.00;;;;;;6125084;23;20471;-88
2021/12/29 08:34:14;;;;;;;15.85;10.85;;;11.80;1.00;;;;;;6099986;23;20314;-92
2021/12/29 08:36:40;;;;;;;17.83;9.68;;;11.30;1.00;;;;;;6101222;23;20374;-87
2021/12/29 08:39:06;;;;;;;15.23;9.93;;;11.40;1.00;;;;;;6127996;23;20006;-92
2021/12/29 08:41:33;;;;;;;13.70;9.70;;;11.40;1.00;;;;;;6100568;23;20384;-81
2021/12/29 08:43:59;;;;;;;13.25;9.02;;;11.40;1.00;;;;;;6124581;23;20136;-81
2021/12/29 08:46:25;;;;;;;12.25;8.50;;;11.40;1.00;;;;;;6125010;23;20005;-80
2021/12/29 08:48:51;;;;;;;8.75;6.20;;;11.40;1.00;;;;;;6125256;23;20504;-87
2021/12/29 08:51:18;;;;;;;7.05;5.57;;;11.40;1.00;;;;;;6127223;23;20013;-95
2021/12/29 08:53:44;;;;;;;7.65;5.30;;;11.60;1.00;;;;;;6124795;23;20006;-80
2021/12/29 08:56:10;;;;;;;8.68;5.18;;;11.50;1.00;;;;;;6124767;23;20021;-80
2021/12/29 08:58:36;;;;;;;7.88;6.00;;;11.60;1.00;;;;;;6124903;23;20001;-90
2021/12/29 09:01:02;;;;;;;6.47;5.70;;;12.10;1.00;;;;;;6124948;23;20116;-94
2021/12/29 09:03:28;;;;;;;5.18;4.63;;;11.70;1.00;;;;;;6124400;23;20005;-85
2021/12/29 09:05:54;;;;;;;5.45;4.47;;;11.80;1.00;;;;;;6124763;23;20002;-82
2021/12/29 09:08:20;;;;;;;5.15;4.20;;;11.90;1.00;;;;;;6124742;23;20445;-85
2021/12/29 09:10:46;;;;;;;3.67;3.35;;;11.90;1.00;;;;;;6124622;23;20001;-82
2021/12/29 09:13:13;;;;;;;3.10;2.60;;;12.00;1.00;;;;;;6124543;23;20009;-83
2021/12/29 09:15:39;;;;;;;3.28;2.83;;;12.10;1.00;;;;;;6098389;23;20010;-85
2021/12/29 09:18:05;;;;;;;3.13;2.75;;;12.20;1.00;;;;;;6124525;23;20006;-80
2021/12/29 09:20:33;;;;;;;4.38;3.00;;;12.30;1.00;;;;;;6124821;23;20471;-82
2021/12/29 09:23:06;;;;;;;3.55;3.15;;;12.30;1.00;;;;;;6124630;23;20449;-82
2021/12/29 09:25:33;;;;;;;4.80;2.80;;;12.40;1.00;;;;;;6125213;23;20010;-81
2021/12/29 09:27:59;;;;;;;3.08;2.78;;;12.40;1.00;;;;;;6123860;23;20013;-86
2021/12/29 09:30:30;;;;;;;3.47;2.92;;;12.40;1.00;;;;;;6125197;23;20014;-83
2021/12/29 09:32:56;;;;;;;3.55;2.47;;;12.40;1.00;;;;;;6124214;23;20440;-83
2021/12/29 09:35:23;;;;;;;3.85;2.03;;;12.50;1.00;;;;;;6124516;23;20006;-81
2021/12/29 09:37:49;;;;;;;3.53;2.63;;;12.40;1.00;;;;;;6123678;23;20084;-81
2021/12/29 09:40:16;;;;;;;3.03;2.05;;;12.50;1.00;;;;;;6123958;23;20073;-83
2021/12/29 09:42:42;;;;;;;2.55;1.90;;;12.50;1.00;;;;;;6124288;23;20006;-81
2021/12/29 09:45:09;;;;;;;4.05;3.45;;;12.50;1.00;;;;;;6124085;23;20077;-82
2021/12/29 09:47:35;;;;;;;7.10;6.40;;;12.50;1.00;;;;;;6098529;23;20398;-83
2021/12/29 09:50:06;;;;;;;14.05;10.45;;;12.50;1.00;;;;;;6124315;23;20449;-88
2021/12/29 09:52:33;;;;;;;12.10;10.23;;;12.40;1.00;;;;;;6124088;23;20013;-84
2021/12/29 09:55:04;;;;;;;11.52;9.48;;;12.10;1.00;;;;;;6124013;23;20020;-85
2021/12/29 09:57:33;;;;;;;12.15;8.00;;;12.10;1.00;;;;;;6124773;23;19998;-85
2021/12/29 10:00:00;;;;;;;10.30;7.28;;;11.60;1.00;;;;;;6129394;23;19992;-92
2021/12/29 10:02:25;;;;;;;8.38;7.35;;;11.70;1.00;;;;;;6125436;23;20014;-90
2021/12/29 10:04:52;;;;;;;10.18;7.20;;;11.60;1.00;;;;;;6099661;23;20417;-93
2021/12/29 10:07:20;;;;;;;7.50;5.82;;;11.40;1.00;;;;;;6126250;23;20032;-89
2021/12/29 10:09:46;;;;;;;9.30;5.93;;;11.80;1.00;;;;;;6098196;23;20384;-83
2021/12/29 10:12:20;;;;;;;6.50;5.90;;;11.60;1.00;;;;;;6124624;23;20036;-82
2021/12/29 10:14:56;;;;;;;7.90;7.10;;;11.70;1.00;;;;;;6124661;23;20005;-81
2021/12/29 10:17:29;;;;;;;11.80;10.70;;;11.70;1.00;;;;;;6124343;23;20068;-81
2021/12/29 10:20:06;;;;;;;11.23;7.97;;;11.90;1.00;;;;;;6124187;23;20006;-81
2021/12/29 10:22:32;;;;;;;12.60;7.85;;;11.80;1.00;;;;;;6124417;23;20017;-81
2021/12/29 10:25:11;;;;;;;10.07;8.10;;;11.90;1.00;;;;;;6123968;23;20006;-84
2021/12/29 10:27:38;;;;;;;14.05;9.77;;;12.00;1.00;;;;;;6124757;23;20050;-84
2021/12/29 10:30:28;;;;;;;17.48;10.75;;;11.90;1.00;;;;;;6126199;23;20013;-83
2021/12/29 10:32:56;;;;;;;12.32;8.88;;;11.60;1.00;;;;;;6126993;23;20508;-82
2021/12/29 10:35:24;;;;;;;14.15;9.52;;;12.00;1.00;;;;;;6125661;23;20504;-81
2021/12/29 10:37:51;;;;;;;12.70;8.95;;;12.10;1.00;;;;;;6126329;23;20010;-83
2021/12/29 10:40:29;;;;;;;14.93;10.00;;;12.10;1.00;;;;;;6125685;23;20006;-82
2021/12/29 10:42:59;;;;;;;14.00;9.52;;;12.10;1.00;;;;;;6125875;23;20010;-85
2021/12/29 10:45:37;;;;;;;5.70;4.43;;;11.90;1.00;;;;;;6126608;23;20453;-84
2021/12/29 10:48:17;;;;;;;3.40;2.70;;;12.00;1.00;;;;;;6126415;23;20441;-84
2021/12/29 10:50:57;;;;;;;3.42;1.60;;;12.20;1.00;;;;;;6125059;23;20072;-82
2021/12/29 10:53:23;;;;;;;2.58;1.50;;;12.40;1.00;;;;;;6125590;23;20017;-86
2021/12/29 10:55:49;;;;;;;1.60;1.50;;;12.60;1.00;;;;;;6126279;23;20571;-86
2021/12/29 10:58:19;;;;;;;2.55;2.03;;;12.70;1.00;;;;;;6126516;23;20010;-86
2021/12/29 11:00:48;;;;;;;2.88;2.00;;;12.70;1.00;;;;;;6126683;23;20029;-85
2021/12/29 11:03:21;;;;;;;3.58;1.90;;;12.80;1.00;;;;;;6125655;23;20006;-85
2021/12/29 11:05:53;;;;;;;3.78;2.30;;;12.90;1.00;;;;;;6125505;23;20085;-84
2021/12/29 11:08:19;;;;;;;6.35;1.90;;;12.90;1.00;;;;;;6125565;23;20049;-85
2021/12/29 11:10:47;;;;;;;2.08;1.25;;;13.00;1.00;;;;;;6126311;23;20037;-86
2021/12/29 11:13:26;;;;;;;2.03;1.25;;;13.00;1.00;;;;;;6125646;23;19998;-86
2021/12/29 11:15:54;;;;;;;3.22;1.65;;;13.10;1.00;;;;;;6125651;23;20006;-84
2021/12/29 11:18:20;;;;;;;2.65;1.55;;;13.10;1.00;;;;;;6099883;23;20441;-86
2021/12/29 11:20:51;;;;;;;2.22;2.03;;;13.10;1.00;;;;;;6125872;23;20025;-85
2021/12/29 11:23:20;;;;;;;1.88;0.90;;;13.10;1.00;;;;;;6125417;23;20010;-82
2021/12/29 11:25:47;;;;;;;0.88;0.77;;;13.20;1.00;;;;;;6099549;23;20037;-82
2021/12/29 11:28:39;;;;;;;1.55;0.95;;;13.40;1.00;;;;;;6126419;23;20009;-81
2021/12/29 11:31:08;;;;;;;3.17;1.00;;;13.40;1.00;;;;;;6119545;23;20020;-82
2021/12/29 11:33:35;;;;;;;0.90;0.75;;;13.40;1.00;;;;;;6125457;23;20013;-82
2021/12/29 11:36:02;;;;;;;1.73;0.80;;;13.40;1.00;;;;;;6125705;23;20009;-82
2021/12/29 11:38:28;;;;;;;1.42;0.70;;;13.50;1.00;;;;;;6125144;23;20030;-85
2021/12/29 11:40:59;;;;;;;0.82;0.70;;;13.60;1.00;;;;;;6125012;23;20014;-87
2021/12/29 11:43:26;;;;;;;1.05;0.68;;;13.50;1.00;;;;;;6125480;23;20040;-85
2021/12/29 11:45:56;;;;;;;3.45;1.00;;;13.50;1.00;;;;;;6125948;23;20005;-82
2021/12/29 11:48:23;;;;;;;1.23;1.00;;;13.50;1.00;;;;;;6124832;23;20430;-84
2021/12/29 11:50:53;;;;;;;1.52;1.42;;;13.50;1.00;;;;;;6125333;23;20022;-85
2021/12/29 11:53:36;;;;;;;1.90;1.40;;;13.40;1.00;;;;;;6125174;23;19998;-82
2021/12/29 11:56:14;;;;;;;0.60;0.60;;;13.40;1.00;;;;;;6125247;23;20061;-83
2021/12/29 11:58:42;;;;;;;0.63;0.60;;;13.50;1.00;;;;;;6125805;23;20002;-83
2021/12/29 12:01:13;;;;;;;1.08;0.98;;;13.70;1.00;;;;;;6125079;23;20437;-84
2021/12/29 12:04:00;;;;;;;1.17;0.95;;;13.60;1.00;;;;;;6123926;23;20047;-83
2021/12/29 12:06:39;;;;;;;1.15;0.85;;;13.60;1.00;;;;;;6124469;23;20010;-81
2021/12/29 12:09:15;;;;;;;0.90;0.90;;;13.60;1.00;;;;;;6125519;23;20025;-82
2021/12/29 12:12:02;;;;;;;1.80;0.90;;;13.70;1.00;;;;;;6124998;23;20016;-85
2021/12/29 12:14:34;;;;;;;1.10;0.93;;;13.60;1.00;;;;;;6126215;23;20005;-85
2021/12/29 12:17:12;;;;;;;2.53;1.50;;;13.60;1.00;;;;;;6125665;23;20053;-87
2021/12/29 12:19:39;;;;;;;1.38;1.00;;;13.70;1.00;;;;;;6124712;23;20073;-85
2021/12/29 12:22:11;;;;;;;1.00;0.90;;;13.70;1.00;;;;;;6123750;23;20110;-86
2021/12/29 12:24:39;;;;;;;2.47;2.00;;;13.60;1.00;;;;;;6124815;23;20002;-85
2021/12/29 12:27:11;;;;;;;1.48;1.30;;;13.60;1.00;;;;;;6124559;23;20010;-85
2021/12/29 12:29:39;;;;;;;1.90;1.30;;;13.60;1.00;;;;;;6125422;23;20013;-86
2021/12/29 12:32:19;;;;;;;2.70;1.23;;;13.70;1.00;;;;;;6124340;23;20016;-86
2021/12/29 12:34:54;;;;;;;4.07;1.58;;;13.60;1.00;;;;;;6124744;23;20030;-85
2021/12/29 12:37:28;;;;;;;1.80;1.02;;;13.60;1.00;;;;;;6125282;23;20016;-85
2021/12/29 12:40:02;;;;;;;1.08;0.98;;;13.60;1.00;;;;;;6124417;23;20053;-86
2021/12/29 12:42:29;;;;;;;2.28;1.38;;;13.60;1.00;;;;;;6124971;23;20006;-86
2021/12/29 12:44:57;;;;;;;2.63;1.40;;;13.70;1.00;;;;;;6125854;23;20012;-85
2021/12/29 12:47:30;;;;;;;2.20;1.30;;;13.70;1.00;;;;;;6125409;23;20006;-86
2021/12/29 12:49:56;;;;;;;1.63;1.30;;;13.70;1.00;;;;;;6124211;23;20010;-86
2021/12/29 12:52:24;;;;;;;1.35;1.10;;;13.80;1.00;;;;;;6124888;23;20006;-85
2021/12/29 12:54:56;;;;;;;1.10;1.00;;;13.70;1.00;;;;;;6124232;23;20437;-86
2021/12/29 12:57:39;;;;;;;1.70;0.90;;;13.70;1.00;;;;;;6124187;23;20034;-86
2021/12/29 13:00:13;;;;;;;1.55;1.20;;;13.90;1.00;;;;;;6098719;23;20345;-86
2021/12/29 13:02:43;;;;;;;2.35;1.15;;;13.90;1.00;;;;;;6124341;23;20014;-86
2021/12/29 13:05:33;;;;;;;1.88;1.35;;;14.00;1.00;;;;;;6123762;23;19997;-85
2021/12/29 13:08:22;;;;;;;1.60;1.50;;;13.90;1.00;;;;;;6123774;23;20032;-86